Aviation Digital Data Service (ADDS)

Output produced by TAFs form (2355 UTC 18 February 2018)
found at http://www.aviationweather.gov/adds/tafs/
 
METAR text: RJNK 182300Z 19004KT 150V220 9999 FEW015 SCT030 BKN050 M01/M05 Q1023
Conditions at: RJNK (KOMATSU (CIV/JAS, JP) observed 2300 UTC 18 February 2018
Temperature: -1.0°C (30°F)
Dewpoint: -5.0°C (23°F) [RH = 74%]
Pressure (altimeter): 30.21 inches Hg (1023.0 mb)
Winds: from the S (190 degrees) at 5 MPH (4 knots; 2.1 m/s)
Visibility: 6 or more miles (10+ km)
Ceiling: 5000 feet AGL
Clouds: few clouds at 1500 feet AGL
scattered clouds at 3000 feet AGL
broken clouds at 5000 feet AGL
Weather: no significant weather observed at this time

Forecast for: RJNK (KOMATSU (CIV/JAS, JP)
Text: TAF RJNK 182305Z 1900/2006 26006KT 9999 FEW020 BKN050
Forecast period: 0000 UTC 19 February 2018 to 0600 UTC 20 February 2018
Forecast type: FROM: standard forecast or significant change
Winds: from the W (260 degrees) at 7 MPH (6 knots; 3.1 m/s)
Visibility: 6 or more miles (10+ km)
Ceiling: 5000 feet AGL
Clouds: few clouds at 2000 feet AGL
broken clouds at 5000 feet AGL
Weather: no significant weather forecast for this period